CheckWX is a tool to help pilots better visualize weather data.  It is not intended as a substitute for an official pre-flight weather briefing.

17:15:38 UTC

KGEG TAF
Spokane International Airport
Spokane, Washington, USA
KGEG 181355Z 1814/1912 22014KT P6SM BKN006 BKN015 FM181500 22014KT P6SM SCT006 BKN015 FM181700 23018G25KT P6SM SCT060 FM190200 21014G20KT P6SM BKN080 FM190600 20012KT P6SM -RA OVC050 FM191000 20010KT P6SM -RA OVC025

Oct-18@
14:00 UTC

Oct-18 @ 14:00 UTC

Oct-18@
15:00 UTC

Oct-18 @ 15:00 UTC

KGEG 181355Z 1814/1912 22014KT P6SM BKN006 BKN015

Expired

Wind
  • 220° at 14 KTS
Cloud Levels
  • Broken at 600' AGL
  • Broken at 1,500' AGL

Oct-18@
15:00 UTC

Oct-18 @ 15:00 UTC

Oct-18@
17:00 UTC

Oct-18 @ 17:00 UTC

FM181500 22014KT P6SM SCT006 BKN015

Expired

Wind
  • 220° at 14 KTS
Cloud Levels
  • Scattered at 600' AGL
  • Broken at 1,500' AGL

Oct-18@
17:00 UTC

Oct-18 @ 17:00 UTC

Oct-19@
02:00 UTC

Oct-19 @ 02:00 UTC

FM181700 23018G25KT P6SM SCT060

From

From Standard forecast or significant change

Wind
  • 230° at 18 KTS
  • {Gusting to 25 KTS
Cloud Levels
  • Scattered at 6,000' AGL

Oct-19@
02:00 UTC

Oct-19 @ 02:00 UTC

Oct-19@
06:00 UTC

Oct-19 @ 06:00 UTC

FM190200 21014G20KT P6SM BKN080

From

From Standard forecast or significant change

Wind
  • 210° at 14 KTS
  • {Gusting to 20 KTS
Cloud Levels
  • Broken at 8,000' AGL

Oct-19@
06:00 UTC

Oct-19 @ 06:00 UTC

Oct-19@
10:00 UTC

Oct-19 @ 10:00 UTC

FM190600 20012KT P6SM -RA OVC050

From

From Standard forecast or significant change

Wind
  • 200° at 12 KTS
Conditions
Light Rain
Cloud Levels
  • Overcast at 5,000' AGL

Oct-19@
10:00 UTC

Oct-19 @ 10:00 UTC

Oct-19@
12:00 UTC

Oct-19 @ 12:00 UTC

FM191000 20010KT P6SM -RA OVC025

From

From Standard forecast or significant change

Wind
  • 200° at 10 KTS
Conditions
Light Rain
Cloud Levels
  • Overcast at 2,500' AGL